createdAt,value
2022-08-09T00:00:13.373Z,17.43
2022-08-09T00:02:49.013Z,17.40
2022-08-09T00:06:17.698Z,17.32
2022-08-09T00:08:10.204Z,17.30
2022-08-09T00:10:38.624Z,17.26
2022-08-09T00:13:08.431Z,17.25
2022-08-09T00:15:58.944Z,17.19
2022-08-09T00:18:29.629Z,17.15
2022-08-09T00:20:57.929Z,17.15
2022-08-09T00:23:58.208Z,17.14
2022-08-09T00:26:12.180Z,17.13
2022-08-09T00:28:40.556Z,17.12
2022-08-09T00:31:30.658Z,17.09
2022-08-09T00:33:55.314Z,17.02
2022-08-09T00:36:29.677Z,16.99
2022-08-09T00:38:57.766Z,16.99
2022-08-09T00:44:11.080Z,17.01
2022-08-09T00:44:25.081Z,16.90
2022-08-09T00:47:04.775Z,16.94
2022-08-09T00:49:36.612Z,16.92
2022-08-09T00:52:06.114Z,16.90
2022-08-09T00:54:43.077Z,16.83
2022-08-09T00:57:11.443Z,16.75
2022-08-09T00:59:46.621Z,16.69
2022-08-09T01:02:24.133Z,16.73
2022-08-09T01:05:02.612Z,16.70
2022-08-09T01:08:01.055Z,16.77
2022-08-09T01:10:39.573Z,16.73
2022-08-09T01:13:53.270Z,16.62
2022-08-09T01:16:24.906Z,16.52
2022-08-09T01:19:01.896Z,16.36
2022-08-09T01:21:50.838Z,16.18
2022-08-09T01:24:25.639Z,16.13
2022-08-09T01:27:13.410Z,16.07
2022-08-09T01:29:55.751Z,16.06
2022-08-09T01:32:31.575Z,16.10
2022-08-09T01:35:17.945Z,16.19
2022-08-09T01:38:08.208Z,16.12
2022-08-09T01:40:42.935Z,16.08
2022-08-09T01:43:11.095Z,16.10
2022-08-09T01:45:46.161Z,16.21
2022-08-09T01:48:17.080Z,16.19
2022-08-09T01:50:55.168Z,16.15
2022-08-09T01:53:23.229Z,16.11
2022-08-09T01:55:52.419Z,16.10
2022-08-09T01:58:24.308Z,16.09
2022-08-09T02:00:53.467Z,16.17
2022-08-09T02:03:21.559Z,16.18
2022-08-09T02:06:03.528Z,16.10
2022-08-09T02:08:57.119Z,16.08
2022-08-09T02:11:25.138Z,16.04
2022-08-09T02:14:10.829Z,16.06
2022-08-09T02:16:59.652Z,16.04
2022-08-09T02:19:38.679Z,15.98
2022-08-09T02:22:16.874Z,16.00
2022-08-09T02:24:52.015Z,15.98
2022-08-09T02:27:27.469Z,15.97
2022-08-09T02:30:09.578Z,15.95
2022-08-09T02:32:43.151Z,15.98
2022-08-09T02:35:19.296Z,15.97
2022-08-09T02:37:53.037Z,15.96
2022-08-09T02:40:25.027Z,15.95
2022-08-09T02:43:00.984Z,15.85
2022-08-09T02:45:32.928Z,15.80
2022-08-09T02:48:03.795Z,15.80
2022-08-09T02:50:36.410Z,15.81
2022-08-09T02:53:07.991Z,15.71
2022-08-09T02:55:57.618Z,15.72
2022-08-09T02:58:35.413Z,15.69
2022-08-09T03:01:10.634Z,15.71
2022-08-09T03:04:16.861Z,15.62
2022-08-09T03:06:29.008Z,15.52
2022-08-09T03:08:57.222Z,15.53
2022-08-09T03:12:04.739Z,15.48
2022-08-09T03:14:12.784Z,15.50
2022-08-09T03:16:44.706Z,15.46
2022-08-09T03:19:16.694Z,15.55
2022-08-09T03:21:59.905Z,15.64
2022-08-09T03:24:42.274Z,15.56
2022-08-09T03:27:10.874Z,15.59
2022-08-09T03:29:57.185Z,15.55
2022-08-09T03:32:27.611Z,15.51
2022-08-09T03:34:55.867Z,15.46
2022-08-09T03:37:58.292Z,15.49
2022-08-09T03:40:13.192Z,15.54
2022-08-09T03:42:40.031Z,15.48
2022-08-09T03:45:10.804Z,15.48
2022-08-09T03:47:40.268Z,15.41
2022-08-09T03:50:11.013Z,15.42
2022-08-09T03:52:40.513Z,15.38
2022-08-09T03:55:10.565Z,15.41
2022-08-09T03:57:53.394Z,15.37
2022-08-09T04:00:24.254Z,15.36
2022-08-09T04:02:54.427Z,15.31
2022-08-09T04:05:27.346Z,15.28
2022-08-09T04:07:57.139Z,15.27
2022-08-09T04:10:29.296Z,15.30
2022-08-09T04:12:58.186Z,15.37
2022-08-09T04:15:42.648Z,15.36
2022-08-09T04:18:17.821Z,15.37
2022-08-09T04:20:48.048Z,15.33
2022-08-09T04:23:17.353Z,15.30
2022-08-09T04:25:51.826Z,15.27
2022-08-09T04:28:33.483Z,15.19
2022-08-09T04:31:07.751Z,15.08
2022-08-09T04:33:52.308Z,14.98
2022-08-09T04:36:25.595Z,15.11
2022-08-09T04:38:53.454Z,15.17
2022-08-09T04:41:23.854Z,15.12
2022-08-09T04:44:07.065Z,15.09
2022-08-09T04:46:58.786Z,15.10
2022-08-09T04:49:40.933Z,15.19
2022-08-09T04:52:22.021Z,15.16
2022-08-09T04:54:53.594Z,15.14
2022-08-09T04:57:24.024Z,15.09
2022-08-09T04:59:53.448Z,15.11
2022-08-09T05:02:20.058Z,15.17
2022-08-09T05:04:47.413Z,15.24
2022-08-09T05:07:18.952Z,15.28
2022-08-09T05:09:49.721Z,15.22
2022-08-09T05:12:16.846Z,15.17
2022-08-09T05:14:43.366Z,15.23
2022-08-09T05:17:15.330Z,15.20
2022-08-09T05:19:56.948Z,15.24
2022-08-09T05:22:34.944Z,15.29
2022-08-09T05:25:12.195Z,15.39
2022-08-09T05:27:46.380Z,15.39
2022-08-09T05:30:15.315Z,15.49
2022-08-09T05:32:45.273Z,15.53
2022-08-09T05:35:17.898Z,15.56
2022-08-09T05:37:47.674Z,15.51
2022-08-09T05:40:15.257Z,15.59
2022-08-09T05:42:42.770Z,15.63
2022-08-09T05:45:10.235Z,15.70
2022-08-09T05:47:51.544Z,15.81
2022-08-09T05:50:32.393Z,15.79
2022-08-09T05:53:05.750Z,15.82
2022-08-09T05:55:38.525Z,15.90
2022-08-09T05:58:07.232Z,15.94
2022-08-09T06:00:34.032Z,15.91
2022-08-09T06:03:02.407Z,15.96
2022-08-09T06:05:57.100Z,16.00
2022-08-09T06:08:24.191Z,16.11
2022-08-09T06:10:53.201Z,16.14
2022-08-09T06:13:20.581Z,16.24
2022-08-09T06:15:52.310Z,16.21
2022-08-09T06:18:25.237Z,16.27
2022-08-09T06:20:57.222Z,16.35
2022-08-09T06:23:57.168Z,16.50
2022-08-09T06:26:14.531Z,16.50
2022-08-09T06:28:43.453Z,16.49
2022-08-09T06:31:11.075Z,16.56
2022-08-09T06:33:41.047Z,16.68
2022-08-09T06:36:09.288Z,16.82
2022-08-09T06:38:37.441Z,16.88
2022-08-09T06:41:09.420Z,16.85
2022-08-09T06:43:46.211Z,16.96
2022-08-09T06:46:13.173Z,17.07
2022-08-09T06:49:00.394Z,17.14
2022-08-09T06:51:28.018Z,17.20
2022-08-09T06:53:55.398Z,17.26
2022-08-09T06:56:30.678Z,17.39
2022-08-09T07:00:56.901Z,17.55
2022-08-09T07:01:57.835Z,17.76
2022-08-09T07:04:30.531Z,17.93
2022-08-09T07:07:00.120Z,18.04
2022-08-09T07:09:57.345Z,18.15
2022-08-09T07:12:18.072Z,18.36
2022-08-09T07:14:50.615Z,18.50
2022-08-09T07:17:21.526Z,18.45
2022-08-09T07:19:50.784Z,18.63
2022-08-09T07:22:27.274Z,18.77
2022-08-09T07:25:02.117Z,18.87
2022-08-09T07:27:34.266Z,18.94
2022-08-09T07:30:09.732Z,19.07
2022-08-09T07:32:36.672Z,19.26
2022-08-09T07:35:10.189Z,19.45
2022-08-09T07:37:43.671Z,19.66
2022-08-09T07:40:13.688Z,19.87
2022-08-09T07:43:02.343Z,20.03
2022-08-09T07:45:39.918Z,20.13
2022-08-09T07:48:29.652Z,20.27
2022-08-09T07:51:03.061Z,20.24
2022-08-09T07:54:06.566Z,20.38
2022-08-09T07:56:31.701Z,20.58
2022-08-09T07:58:59.476Z,20.71
2022-08-09T08:01:32.847Z,20.87
2022-08-09T08:04:01.231Z,20.98
2022-08-09T08:06:31.936Z,20.91
2022-08-09T08:09:03.946Z,21.13
2022-08-09T08:12:23.941Z,21.13
2022-08-09T08:14:17.808Z,21.25
2022-08-09T08:16:51.068Z,21.47
2022-08-09T08:19:31.088Z,21.69
2022-08-09T08:21:58.088Z,21.65
2022-08-09T08:24:25.278Z,21.69
2022-08-09T08:27:04.908Z,21.70
2022-08-09T08:29:48.797Z,21.87
2022-08-09T08:32:24.223Z,22.06
2022-08-09T08:34:58.516Z,22.06
2022-08-09T08:37:40.800Z,22.10
2022-08-09T08:40:09.334Z,22.22
2022-08-09T08:42:37.489Z,22.29
2022-08-09T08:45:11.803Z,22.36
2022-08-09T08:47:42.917Z,22.33
2022-08-09T08:50:15.555Z,22.47
2022-08-09T08:52:57.907Z,22.68
2022-08-09T08:55:27.485Z,22.80
2022-08-09T08:57:58.535Z,22.71
2022-08-09T09:00:30.509Z,22.87
2022-08-09T09:03:11.092Z,22.95
2022-08-09T09:06:00.680Z,22.89
2022-08-09T09:08:31.124Z,23.04
2022-08-09T09:11:03.810Z,22.87
2022-08-09T09:13:50.250Z,23.07
2022-08-09T09:16:31.204Z,23.14
2022-08-09T09:21:59.348Z,23.56
2022-08-09T09:24:29.075Z,23.41
2022-08-09T09:26:58.159Z,23.43
2022-08-09T09:30:11.437Z,23.69
2022-08-09T09:32:34.933Z,23.76
2022-08-09T09:35:15.652Z,23.50
2022-08-09T09:37:45.740Z,23.48
2022-08-09T09:40:13.106Z,23.73
2022-08-09T09:42:43.010Z,24.04
2022-08-09T09:45:14.374Z,24.20
2022-08-09T09:47:58.440Z,24.09
2022-08-09T09:50:49.617Z,23.83
2022-08-09T09:53:43.680Z,23.81
2022-08-09T09:56:19.978Z,23.73
2022-08-09T09:58:57.953Z,24.00
2022-08-09T10:01:30.868Z,24.08
2022-08-09T10:04:30.583Z,24.17
2022-08-09T10:06:58.002Z,24.25
2022-08-09T10:09:25.403Z,24.20
2022-08-09T10:12:12.965Z,24.29
2022-08-09T10:14:49.202Z,24.55
2022-08-09T10:17:39.854Z,24.65
2022-08-09T10:20:35.662Z,24.44
2022-08-09T10:23:20.371Z,24.41
2022-08-09T10:26:06.123Z,24.73
2022-08-09T10:28:35.412Z,24.63
2022-08-09T10:34:18.956Z,24.93
2022-08-09T10:36:38.530Z,24.94
2022-08-09T10:39:14.006Z,24.77
2022-08-09T10:41:47.758Z,24.71
2022-08-09T10:44:19.168Z,24.64
2022-08-09T10:48:12.099Z,24.68
2022-08-09T10:50:31.258Z,24.75
2022-08-09T10:53:10.067Z,24.77
2022-08-09T10:55:58.438Z,24.48
2022-08-09T10:58:34.915Z,24.38
2022-08-09T11:03:07.436Z,24.17
2022-08-09T11:04:20.051Z,24.32
2022-08-09T11:07:00.749Z,24.39
2022-08-09T11:09:47.705Z,24.30
2022-08-09T11:12:30.097Z,24.34
2022-08-09T11:15:01.502Z,24.44
2022-08-09T11:17:47.867Z,24.48
2022-08-09T11:20:43.198Z,24.35
2022-08-09T11:23:10.536Z,24.28
2022-08-09T11:25:47.988Z,24.38
2022-08-09T11:28:56.053Z,24.45
2022-08-09T11:31:49.802Z,24.54
2022-08-09T11:34:42.840Z,24.49
2022-08-09T11:37:18.352Z,24.50
2022-08-09T11:40:08.576Z,24.55
2022-08-09T11:42:48.550Z,24.64
2022-08-09T11:45:41.966Z,24.68
2022-08-09T11:48:19.383Z,24.69
2022-08-09T11:51:38.020Z,24.72
2022-08-09T11:54:01.041Z,24.82
2022-08-09T11:56:41.529Z,24.94
2022-08-09T11:59:30.490Z,25.10
2022-08-09T12:02:17.473Z,25.07
2022-08-09T12:04:47.203Z,25.18
2022-08-09T12:07:14.310Z,25.21
2022-08-09T12:09:50.272Z,25.16
2022-08-09T12:12:20.248Z,25.20
2022-08-09T12:15:04.044Z,25.46
2022-08-09T12:17:42.075Z,25.67
2022-08-09T12:20:21.983Z,25.80
2022-08-09T12:22:55.813Z,25.95
2022-08-09T12:25:35.894Z,26.19
2022-08-09T12:28:58.991Z,26.25
2022-08-09T12:31:10.695Z,26.38
2022-08-09T12:33:59.028Z,26.66
2022-08-09T12:36:32.388Z,26.56
2022-08-09T12:39:00.687Z,26.96
2022-08-09T12:41:36.270Z,26.95
2022-08-09T12:44:09.815Z,27.32
2022-08-09T12:46:39.580Z,27.76
2022-08-09T12:49:08.686Z,27.81
2022-08-09T12:52:00.423Z,27.75
2022-08-09T12:54:22.122Z,27.66
2022-08-09T12:56:54.393Z,27.68
2022-08-09T12:59:24.902Z,27.89
2022-08-09T13:02:11.342Z,27.68
2022-08-09T13:04:41.688Z,27.42
2022-08-09T13:07:19.282Z,27.29
2022-08-09T13:09:55.081Z,27.10
2022-08-09T13:12:23.079Z,27.07
2022-08-09T13:14:53.736Z,27.14
2022-08-09T13:17:22.077Z,27.02
2022-08-09T13:20:16.295Z,26.83
2022-08-09T13:23:05.215Z,26.89
2022-08-09T13:25:42.615Z,26.83
2022-08-09T13:28:24.374Z,26.69
2022-08-09T13:32:13.830Z,26.77
2022-08-09T13:33:55.135Z,26.86
2022-08-09T13:36:39.507Z,26.86
2022-08-09T13:41:17.113Z,26.87
2022-08-09T13:42:02.509Z,27.03
2022-08-09T13:44:30.395Z,27.25
2022-08-09T13:47:29.234Z,27.37
2022-08-09T13:49:58.187Z,27.44
2022-08-09T13:52:28.913Z,27.26
2022-08-09T13:54:59.834Z,27.20
2022-08-09T13:57:37.388Z,27.31
2022-08-09T14:00:18.066Z,27.28
2022-08-09T14:03:17.217Z,27.27
2022-08-09T14:05:58.313Z,27.20
2022-08-09T14:08:24.752Z,27.33
2022-08-09T14:10:53.879Z,27.18
2022-08-09T14:14:16.477Z,27.17
2022-08-09T14:16:14.251Z,27.28
2022-08-09T14:18:45.238Z,27.29
2022-08-09T14:21:20.544Z,27.35
2022-08-09T14:23:54.140Z,27.32
2022-08-09T14:26:31.854Z,27.10
2022-08-09T14:29:07.814Z,26.98
2022-08-09T14:31:53.689Z,26.93
2022-08-09T14:34:30.966Z,26.67
2022-08-09T14:36:58.993Z,26.40
2022-08-09T14:39:47.173Z,26.32
2022-08-09T14:42:12.416Z,26.28
2022-08-09T14:44:48.478Z,26.22
2022-08-09T14:47:39.856Z,26.27
2022-08-09T14:50:03.991Z,26.26
2022-08-09T14:52:30.586Z,26.11
2022-08-09T14:54:57.167Z,26.15
2022-08-09T14:57:31.823Z,26.13
2022-08-09T15:00:09.864Z,26.20
2022-08-09T15:02:36.545Z,26.09
2022-08-09T15:05:07.009Z,26.03
2022-08-09T15:07:35.509Z,25.97
2022-08-09T15:10:10.905Z,25.98
2022-08-09T15:12:37.984Z,26.07
2022-08-09T15:15:08.548Z,26.00
2022-08-09T15:17:42.120Z,26.01
2022-08-09T15:20:15.245Z,26.11
2022-08-09T15:23:56.113Z,26.11
2022-08-09T15:25:46.530Z,26.09
2022-08-09T15:28:27.523Z,26.08
2022-08-09T15:31:08.220Z,26.12
2022-08-09T15:34:17.992Z,26.05
2022-08-09T15:36:28.465Z,26.01
2022-08-09T15:38:57.079Z,26.01
2022-08-09T15:41:23.553Z,25.94
2022-08-09T15:44:00.206Z,25.92
2022-08-09T15:46:33.788Z,25.87
2022-08-09T15:49:21.831Z,25.90
2022-08-09T15:52:03.943Z,25.90
2022-08-09T15:54:48.969Z,25.83
2022-08-09T15:57:19.008Z,25.93
2022-08-09T16:00:01.855Z,25.81
2022-08-09T16:02:28.395Z,25.74
2022-08-09T16:04:55.575Z,25.68
2022-08-09T16:07:22.467Z,25.68
2022-08-09T16:10:04.097Z,25.68
2022-08-09T16:12:33.295Z,25.75
2022-08-09T16:15:01.130Z,25.78
2022-08-09T16:17:29.000Z,25.78
2022-08-09T16:20:04.924Z,25.75
2022-08-09T16:22:42.459Z,25.77
2022-08-09T16:25:15.864Z,25.72
2022-08-09T16:27:42.475Z,25.69
2022-08-09T16:30:15.085Z,25.74
2022-08-09T16:33:10.429Z,25.72
2022-08-09T16:35:57.582Z,25.72
2022-08-09T16:38:25.236Z,25.83
2022-08-09T16:40:51.938Z,25.89
2022-08-09T16:43:18.593Z,26.03
2022-08-09T16:45:48.079Z,26.06
2022-08-09T16:48:38.471Z,26.10
2022-08-09T16:51:07.694Z,26.06
2022-08-09T16:53:36.320Z,25.86
2022-08-09T16:56:09.897Z,25.75
2022-08-09T16:58:39.735Z,25.70
2022-08-09T17:01:09.870Z,25.72
2022-08-09T17:03:37.372Z,25.67
2022-08-09T17:06:26.017Z,25.65
2022-08-09T17:09:01.396Z,25.74
2022-08-09T17:11:41.789Z,25.62
2022-08-09T17:14:25.701Z,25.58
2022-08-09T17:16:59.783Z,25.59
2022-08-09T17:19:27.477Z,25.49
2022-08-09T17:22:13.455Z,25.46
2022-08-09T17:24:41.463Z,25.37
2022-08-09T17:27:15.383Z,25.35
2022-08-09T17:29:45.423Z,25.40
2022-08-09T17:32:15.653Z,25.24
2022-08-09T17:35:07.875Z,25.23
2022-08-09T17:37:29.864Z,25.14
2022-08-09T17:39:56.472Z,25.13
2022-08-09T17:42:42.197Z,25.17
2022-08-09T17:45:16.095Z,25.09
2022-08-09T17:47:55.871Z,25.07
2022-08-09T17:50:36.889Z,25.07
2022-08-09T17:53:19.208Z,25.03
2022-08-09T17:55:50.290Z,24.89
2022-08-09T17:58:19.169Z,24.82
2022-08-09T18:00:47.968Z,24.76
2022-08-09T18:03:17.676Z,24.78
2022-08-09T18:05:44.598Z,24.76
2022-08-09T18:08:13.329Z,24.74
2022-08-09T18:10:40.230Z,24.77
2022-08-09T18:13:39.089Z,24.77
2022-08-09T18:16:07.721Z,24.66
2022-08-09T18:18:42.887Z,24.52
2022-08-09T18:21:23.213Z,24.49
2022-08-09T18:24:09.944Z,24.41
2022-08-09T18:26:38.111Z,24.39
2022-08-09T18:30:39.000Z,24.36
2022-08-09T18:31:56.382Z,24.27
2022-08-09T18:34:24.140Z,24.20
2022-08-09T18:36:50.966Z,24.12
2022-08-09T18:39:22.258Z,24.09
2022-08-09T18:41:53.395Z,24.02
2022-08-09T18:44:25.315Z,24.04
2022-08-09T18:47:07.661Z,24.04
2022-08-09T18:49:41.563Z,23.85
2022-08-09T18:52:11.746Z,23.82
2022-08-09T18:54:38.924Z,23.75
2022-08-09T18:57:08.725Z,23.71
2022-08-09T18:59:37.363Z,23.69
2022-08-09T19:02:16.058Z,23.67
2022-08-09T19:04:47.320Z,23.71
2022-08-09T19:07:16.413Z,23.62
2022-08-09T19:10:14.436Z,23.44
2022-08-09T19:12:31.828Z,23.34
2022-08-09T19:15:00.454Z,23.32
2022-08-09T19:17:31.261Z,23.27
2022-08-09T19:20:06.666Z,23.27
2022-08-09T19:22:34.705Z,23.17
2022-08-09T19:25:09.710Z,23.14
2022-08-09T19:27:48.662Z,23.08
2022-08-09T19:30:24.743Z,23.08
2022-08-09T19:32:55.324Z,22.96
2022-08-09T19:35:26.346Z,22.95
2022-08-09T19:37:57.536Z,22.91
2022-08-09T19:40:33.409Z,22.80
2022-08-09T19:43:01.889Z,22.72
2022-08-09T19:45:38.865Z,22.64
2022-08-09T19:48:06.634Z,22.60
2022-08-09T19:50:49.271Z,22.53
2022-08-09T19:53:20.666Z,22.42
2022-08-09T19:56:02.044Z,22.37
2022-08-09T19:58:29.629Z,22.39
2022-08-09T20:00:57.686Z,22.32
2022-08-09T20:04:11.551Z,22.30
2022-08-09T20:06:23.256Z,22.21
2022-08-09T20:08:56.881Z,22.18
2022-08-09T20:11:26.161Z,22.16
2022-08-09T20:13:54.370Z,22.16
2022-08-09T20:16:35.535Z,22.05
2022-08-09T20:19:48.834Z,21.98
2022-08-09T20:21:56.909Z,21.97
2022-08-09T20:24:29.528Z,21.91
2022-08-09T20:27:01.073Z,22.02
2022-08-09T20:29:32.705Z,22.04
2022-08-09T20:32:40.168Z,22.01
2022-08-09T20:34:53.632Z,22.00
2022-08-09T20:37:21.435Z,21.90
2022-08-09T20:40:16.499Z,21.83
2022-08-09T20:42:37.690Z,21.75
2022-08-09T20:46:01.813Z,21.71
2022-08-09T20:47:51.853Z,21.64
2022-08-09T20:50:48.529Z,21.55
2022-08-09T20:53:04.874Z,21.53
2022-08-09T20:55:47.440Z,21.43
2022-08-09T20:58:32.593Z,21.38
2022-08-09T21:01:13.689Z,21.31
2022-08-09T21:05:48.148Z,21.21
2022-08-09T21:06:35.116Z,21.14
2022-08-09T21:09:02.705Z,21.05
2022-08-09T21:14:17.349Z,20.97
2022-08-09T21:16:45.637Z,20.91
2022-08-09T21:20:17.007Z,20.92
2022-08-09T21:21:59.489Z,20.91
2022-08-09T21:24:28.902Z,20.82
2022-08-09T21:26:59.446Z,20.76
2022-08-09T21:29:25.962Z,20.77
2022-08-09T21:31:53.354Z,20.71
2022-08-09T21:34:29.073Z,20.63
2022-08-09T21:36:56.381Z,20.65
2022-08-09T21:39:28.232Z,20.64
2022-08-09T21:42:10.651Z,20.49
2022-08-09T21:44:37.905Z,20.44
2022-08-09T21:47:08.677Z,20.38
2022-08-09T21:49:42.988Z,20.31
2022-08-09T21:52:14.998Z,20.36
2022-08-09T21:55:03.072Z,20.26
2022-08-09T21:57:39.218Z,20.19
2022-08-09T22:00:31.821Z,20.18
2022-08-09T22:03:02.303Z,20.08
2022-08-09T22:05:37.322Z,20.05
2022-08-09T22:08:13.103Z,20.01
2022-08-09T22:11:49.108Z,20.02
2022-08-09T22:13:34.746Z,20.01
2022-08-09T22:16:09.074Z,19.94
2022-08-09T22:18:52.204Z,19.89
2022-08-09T22:21:24.498Z,19.80
2022-08-09T22:24:01.570Z,19.75
2022-08-09T22:26:35.104Z,19.71
2022-08-09T22:29:07.065Z,19.71
2022-08-09T22:31:35.752Z,19.74
2022-08-09T22:34:02.823Z,19.66
2022-08-09T22:36:29.369Z,19.56
2022-08-09T22:39:20.830Z,19.56
2022-08-09T22:41:58.929Z,19.48
2022-08-09T22:44:32.857Z,19.40
2022-08-09T22:48:11.471Z,19.40
2022-08-09T22:49:47.181Z,19.36
2022-08-09T22:52:15.635Z,19.33
2022-08-09T22:54:42.319Z,19.30
2022-08-09T22:57:13.550Z,19.22
2022-08-09T22:59:57.702Z,19.19
2022-08-09T23:02:25.188Z,19.13
2022-08-09T23:04:53.724Z,19.08
2022-08-09T23:08:23.173Z,19.09
2022-08-09T23:10:27.477Z,19.11
2022-08-09T23:12:53.950Z,19.05
2022-08-09T23:15:20.494Z,19.06
2022-08-09T23:17:47.082Z,19.01
2022-08-09T23:20:13.746Z,19.02
2022-08-09T23:22:40.400Z,19.01
2022-08-09T23:25:07.346Z,18.98
2022-08-09T23:27:34.384Z,18.98
2022-08-09T23:30:01.003Z,18.89
2022-08-09T23:32:27.512Z,18.87
2022-08-09T23:34:54.019Z,18.86
2022-08-09T23:37:22.683Z,18.78
2022-08-09T23:39:52.104Z,18.77
2022-08-09T23:42:18.695Z,18.73
2022-08-09T23:44:45.270Z,18.63
2022-08-09T23:47:11.829Z,18.60
2022-08-09T23:49:38.366Z,18.64
2022-08-09T23:52:05.132Z,18.61
2022-08-09T23:54:31.681Z,18.62
2022-08-09T23:56:58.676Z,18.62
2022-08-09T23:59:25.704Z,18.58
